Weather reports worldwide

Advertisment
Naimakka, Sweden (2055): temperature & dewpoint: 16.08.2019 21:00:00 - 22.08.2019 21:00:00 (CEST)Naimakka, Sweden (2055): wind speed & gusts: 16.08.2019 21:00:00 - 22.08.2019 21:00:00 (CEST)Naimakka, Sweden (2055): wind direction: 16.08.2019 21:00:00 - 22.08.2019 21:00:00 (CEST)Naimakka, Sweden (2055): visibility: 16.08.2019 21:00:00 - 22.08.2019 21:00:00 (CEST)Naimakka, Sweden (2055): precipitation: 16.08.2019 21:00:00 - 22.08.2019 21:00:00 (CEST)
Date & Time tt [°C] td [°C] ff [km/h] ff [kn] fx [km/h] fx [kn] dd vv [km] rr [mm]
22.08.2019 21:00:00 - - - - - - - - -
22.08.2019 20:00:00 12,2 5,8 4 2 12 7 W 50 0,0
22.08.2019 19:00:00 12,8 5,0 7 4 17 9 W 50 0,0
22.08.2019 18:00:00 13,3 4,4 13 7 22 12 WNW 50 0,0
22.08.2019 17:00:00 14,4 3,8 14 8 27 15 WNW 49 0,0
22.08.2019 16:00:00 14,9 3,1 12 6 23 13 W 48 0,0
22.08.2019 15:00:00 14,1 3,5 11 6 25 14 NW 50 0,0
22.08.2019 14:00:00 14,8 4,2 15 8 28 15 WNW 49 0,0
22.08.2019 13:00:00 13,5 3,0 12 6 24 13 W 49 0,0
22.08.2019 12:00:00 13,8 4,4 11 6 28 15 WNW 48 0,0
22.08.2019 11:00:00 13,0 4,7 15 8 35 19 NW 50 0,0
22.08.2019 10:00:00 11,9 5,3 16 9 35 19 WNW 50 0,0
22.08.2019 09:00:00 11,9 5,3 18 10 34 18 NW 50 0,0
22.08.2019 08:00:00 10,8 6,4 14 8 22 12 WNW 48 0,0
22.08.2019 07:00:00 9,7 6,4 11 6 20 11 WNW 50 0,0
22.08.2019 06:00:00 7,2 5,8 3 1 12 6 WSW 50 0,0
22.08.2019 05:00:00 7,7 5,7 6 3 15 8 NW 50 0,0
22.08.2019 04:00:00 6,0 5,9 11 6 14 8 W 50 0,0
22.08.2019 03:00:00 4,3 4,2 8 5 13 7 W 25 0,0
22.08.2019 02:00:00 6,5 5,9 8 4 13 7 W 50 0,0
22.08.2019 01:00:00 7,2 5,7 10 6 13 7 W 50 0,0
22.08.2019 00:00:00 6,3 5,4 6 3 9 5 W 50 0,0
21.08.2019 23:00:00 5,8 4,9 6 3 9 5 W 50 0,0
21.08.2019 22:00:00 9,7 6,0 5 3 14 8 NW 50 0,0
21.08.2019 21:00:00 9,9 6,4 6 3 15 8 W 50 0,0
21.08.2019 20:00:00 12,5 8,8 0 0 10 5 N 50 0,0
21.08.2019 19:00:00 14,6 9,4 7 4 11 6 E 48 0,0
21.08.2019 18:00:00 13,8 9,4 3 1 12 6 ENE 50 0,0
21.08.2019 17:00:00 13,9 8,9 8 5 13 7 E 44 0,0
21.08.2019 16:00:00 13,4 8,9 8 4 32 18 SW 39 0,7
21.08.2019 15:00:00 14,1 10,1 14 8 18 10 E 46 0,0
21.08.2019 14:00:00 13,4 10,4 11 6 14 8 E 40 0,0
21.08.2019 13:00:00 12,0 10,2 6 3 16 9 E 50 0,0
21.08.2019 12:00:00 10,9 9,7 11 6 19 10 E 47 0,1
21.08.2019 11:00:00 9,1 8,8 11 6 18 10 E 21 0,0
21.08.2019 10:00:00 8,8 8,5 11 6 18 10 E 50 0,0
21.08.2019 09:00:00 9,1 8,6 10 5 14 7 E 50 0,0
21.08.2019 08:00:00 7,1 7,0 0 0 4 2 N 50 0,0
21.08.2019 07:00:00 5,8 5,7 2 1 5 3 SW 47 0,0
21.08.2019 06:00:00 4,7 4,6 3 2 9 5 WSW 32 0,0
21.08.2019 05:00:00 3,9 3,8 8 4 13 7 W 15 -
21.08.2019 04:00:00 2,3 2,2 3 2 5 3 W 0,2 0,0
21.08.2019 03:00:00 4,1 4,0 0 0 15 8 N 20 0,0
21.08.2019 02:00:00 5,3 5,2 13 7 17 9 W 50 0,0
21.08.2019 01:00:00 5,5 5,4 8 5 13 7 W 34 0,0
21.08.2019 00:00:00 6,6 6,5 3 2 10 5 W 7 0,0
20.08.2019 23:00:00 7,0 6,3 4 2 9 5 W 26 0,0
20.08.2019 22:00:00 10,2 8,1 7 4 9 5 WNW 50 0,0
20.08.2019 21:00:00 10,5 9,3 4 2 7 4 W 50 0,0
20.08.2019 20:00:00 13,5 10,3 0 0 4 2 N 50 0,0
20.08.2019 19:00:00 14,7 10,3 3 2 7 4 ENE 50 0,0
20.08.2019 18:00:00 14,5 10,3 0 0 5 3 N 50 0,0
20.08.2019 17:00:00 14,4 10,6 5 3 8 5 SE 50 0,1
20.08.2019 16:00:00 14,3 10,3 6 3 10 6 W 29 0,0
20.08.2019 15:00:00 13,9 9,1 9 5 25 14 NNW 50 0,0
20.08.2019 14:00:00 15,6 8,6 8 4 14 8 WNW 50 0,0
20.08.2019 13:00:00 16,0 9,2 8 4 18 10 WNW 47 0,0
20.08.2019 12:00:00 12,9 9,9 6 3 36 19 WNW 29 0,8
20.08.2019 11:00:00 15,2 9,8 3 2 6 4 W 50 0,0
20.08.2019 10:00:00 13,6 9,4 0 0 5 3 N 49 0,0
20.08.2019 09:00:00 12,7 9,7 0 0 10 5 N 50 0,1
20.08.2019 08:00:00 12,0 10,1 7 4 11 6 WNW 50 0,0
20.08.2019 07:00:00 11,9 10,1 0 0 15 8 N 50 0,0
20.08.2019 06:00:00 11,5 9,6 8 4 23 12 W 50 0,0
20.08.2019 05:00:00 11,6 9,5 10 5 16 9 NNW 50 0,1
20.08.2019 04:00:00 11,2 9,6 8 5 29 15 W 50 0,2
20.08.2019 03:00:00 11,3 9,7 15 8 32 17 WSW 26 1,0
20.08.2019 02:00:00 11,3 9,9 18 10 36 19 WSW 18 1,0
20.08.2019 01:00:00 11,5 9,9 17 9 33 18 WSW 25 1,0
20.08.2019 00:00:00 11,8 10,5 18 10 37 20 WSW 19 1,0
19.08.2019 23:00:00 12,1 10,3 20 11 31 17 SW 16 0,9
19.08.2019 22:00:00 11,9 11,7 2 1 8 4 NE 26 1,5
19.08.2019 21:00:00 11,6 11,4 5 3 8 4 W 13 3,3
19.08.2019 20:00:00 11,7 11,5 4 2 13 7 ENE 2,6 3,4
19.08.2019 19:00:00 11,8 11,6 7 4 16 9 E 6 0,9
19.08.2019 18:00:00 11,7 11,5 13 7 23 13 E 6 2,2
19.08.2019 17:00:00 11,9 11,6 14 7 28 15 E 8 0,4
19.08.2019 16:00:00 11,8 11,5 19 10 32 17 ESE 17 1,6
19.08.2019 15:00:00 11,3 11,1 15 8 32 17 ESE 12 6,3
19.08.2019 14:00:00 11,3 10,8 18 10 30 16 ESE 12 1,9
19.08.2019 13:00:00 11,7 11,2 18 10 34 19 ESE 18 2,2
19.08.2019 12:00:00 12,0 11,5 16 9 32 18 ESE 8 2,6
19.08.2019 11:00:00 12,1 11,8 13 7 29 15 ESE 8 2,2
19.08.2019 10:00:00 12,5 11,6 13 7 27 15 ESE 16 1,2
19.08.2019 09:00:00 12,9 12,3 16 9 31 17 ESE 8 1,3
19.08.2019 08:00:00 12,8 12,5 14 7 19 10 E 8 0,6
19.08.2019 07:00:00 12,8 12,0 15 8 19 10 E 28 0,0
19.08.2019 06:00:00 12,9 11,6 9 5 23 13 SSE 47 0,2
19.08.2019 05:00:00 12,8 12,3 10 6 18 10 ESE 16 1,9
19.08.2019 04:00:00 12,0 11,5 12 7 21 11 E 50 0,0
19.08.2019 03:00:00 11,5 10,9 11 6 18 10 E 50 0,0
19.08.2019 02:00:00 11,9 11,0 10 6 26 14 SE 50 2,5
19.08.2019 01:00:00 13,0 11,9 6 3 18 10 ESE 37 0,0
19.08.2019 00:00:00 13,3 11,7 8 5 24 13 SE 50 0,0
18.08.2019 23:00:00 13,3 11,7 10 5 24 13 SE 50 0,1
18.08.2019 22:00:00 13,6 11,5 11 6 23 12 SSE 50 0,0
18.08.2019 21:00:00 13,6 11,5 13 7 24 13 SSE 50 0,0
18.08.2019 20:00:00 13,8 11,8 13 7 30 16 SE 50 0,0
18.08.2019 19:00:00 14,0 12,0 15 8 29 16 SSE 15 0,0
18.08.2019 18:00:00 14,3 11,6 15 8 35 19 SSE 50 0,0
18.08.2019 17:00:00 13,7 11,7 14 8 34 18 SSE 20 0,0
18.08.2019 16:00:00 13,8 11,5 17 9 40 22 SSE 47 0,0
18.08.2019 15:00:00 14,5 11,6 15 8 36 19 S 24 0,0
18.08.2019 14:00:00 14,6 11,2 19 10 41 22 S 44 0,0
18.08.2019 13:00:00 14,2 11,5 15 8 39 21 SSE 13 0,0
18.08.2019 12:00:00 13,6 11,1 11 6 34 18 SSE 11 0,0
18.08.2019 11:00:00 13,3 11,0 10 5 39 21 SE 15 0,0
18.08.2019 10:00:00 12,5 10,7 13 7 35 19 SSE 5 0,0
18.08.2019 09:00:00 12,8 9,8 18 10 44 24 S 35 0,0
18.08.2019 08:00:00 12,8 9,6 18 10 33 18 SSE 43 0,0
18.08.2019 07:00:00 12,7 9,7 13 7 37 20 S 42 0,0
18.08.2019 06:00:00 12,5 9,9 22 12 38 21 S 38 0,0
18.08.2019 05:00:00 12,9 10,3 12 7 27 14 SSE 50 0,0
18.08.2019 04:00:00 13,3 10,5 12 6 26 14 SSE 50 0,0
18.08.2019 03:00:00 13,3 10,7 11 6 29 16 SSE 50 0,0
18.08.2019 02:00:00 14,0 11,3 16 8 30 16 SSE 50 0,0
18.08.2019 01:00:00 14,1 11,6 13 7 27 15 SE 50 0,0
18.08.2019 00:00:00 13,9 11,9 11 6 23 12 ESE 50 0,0
17.08.2019 23:00:00 13,8 12,5 10 5 21 11 ESE 42 0,0
17.08.2019 22:00:00 13,6 12,7 13 7 21 12 ESE 17 0,2
17.08.2019 21:00:00 13,8 11,7 9 5 17 9 ESE 50 0,0
17.08.2019 20:00:00 13,9 11,6 10 6 25 14 ESE 50 0,0
17.08.2019 19:00:00 14,2 11,0 12 7 27 14 SSE 32 0,0
17.08.2019 18:00:00 15,4 10,0 11 6 30 16 SE 50 0,0
17.08.2019 17:00:00 16,1 9,5 14 8 29 16 SSE 50 0,0
17.08.2019 16:00:00 16,0 9,2 14 8 30 16 SSE 50 0,0
17.08.2019 15:00:00 17,1 8,5 14 7 34 18 S 39 0,0
17.08.2019 14:00:00 16,6 7,8 16 8 29 16 S 50 0,0
17.08.2019 13:00:00 16,2 5,2 8 4 25 13 SSE 42 0,0
17.08.2019 12:00:00 15,1 5,0 10 6 23 12 S 50 0,0
17.08.2019 11:00:00 14,9 4,9 8 4 19 10 SE 39 0,0
17.08.2019 10:00:00 13,8 5,9 5 3 13 7 ESE 49 0,0
17.08.2019 09:00:00 12,1 8,9 8 4 12 6 E 40 0,0
17.08.2019 08:00:00 11,7 8,9 3 2 7 4 SE 50 0,0
17.08.2019 07:00:00 10,4 8,5 2 1 4 2 E 50 0,0
17.08.2019 06:00:00 8,5 8,4 0 0 8 4 N 49 0,0
17.08.2019 05:00:00 8,6 8,0 6 3 9 5 NW 50 0,0
17.08.2019 04:00:00 9,2 8,3 6 4 14 8 W 40 0,2
17.08.2019 03:00:00 9,8 9,3 5 3 22 12 W 10 2,3
17.08.2019 02:00:00 11,2 9,8 7 4 17 9 S 50 0,2
17.08.2019 01:00:00 11,3 10,0 3 1 10 5 S 13 0,2
17.08.2019 00:00:00 11,2 10,4 5 3 22 12 ENE 50 0,3
16.08.2019 23:00:00 12,1 10,3 10 5 36 19 S 50 0,1
16.08.2019 22:00:00 11,6 9,7 11 6 25 13 SSE 50 0,0
16.08.2019 21:00:00 11,7 10,8 6 4 19 11 SE 50 0,0

tt = temperature
td = dewpoint
ff = wind speed
fx = gusts
dd = wind direction
vv = visibility
rr = precipitation

Next stations